Time;durP1;ratioP1;P1;durP2;ratioP2;P2;SDS_P1;SDS_P2;PMS_P1;PMS_P2;Temp;Humidity;BMP_temperature;BMP_pressure;BME280_temperature;BME280_humidity;BME280_pressure;Samples;Min_cycle;Max_cycle;Signal;HPM_P1;HPM_P2
2023/06/24 00:02:07;;;;;;;9.07;6.25;;;17.80;99.90;;;;;;4988271;28;20659;-62
2023/06/24 00:04:33;;;;;;;7.93;5.97;;;17.80;99.90;;;;;;4980508;28;20048;-62
2023/06/24 00:07:00;;;;;;;9.25;7.15;;;17.80;99.90;;;;;;5002814;28;20033;-62
2023/06/24 00:09:29;;;;;;;10.27;6.38;;;17.70;99.90;;;;;;5000720;28;20029;-60
2023/06/24 00:11:59;;;;;;;9.63;6.78;;;17.70;99.90;;;;;;5003430;28;20429;-62
2023/06/24 00:14:28;;;;;;;10.68;6.28;;;17.70;99.90;;;;;;5004590;28;20060;-61
2023/06/24 00:16:56;;;;;;;7.40;6.25;;;17.70;99.90;;;;;;4992113;28;20041;-60
2023/06/24 00:19:26;;;;;;;8.50;6.82;;;17.70;99.90;;;;;;4986975;28;20041;-59
2023/06/24 00:21:53;;;;;;;9.75;6.32;;;17.60;99.90;;;;;;5008163;28;20121;-62
2023/06/24 00:24:25;;;;;;;8.55;6.82;;;17.60;99.90;;;;;;4997722;28;20042;-62
2023/06/24 00:26:52;;;;;;;6.97;5.38;;;17.60;99.90;;;;;;5016413;28;20180;-61
2023/06/24 00:29:18;;;;;;;8.32;6.30;;;17.50;99.90;;;;;;4998852;28;20111;-61
2023/06/24 00:31:44;;;;;;;9.45;7.07;;;17.50;99.90;;;;;;5009095;28;20042;-62
2023/06/24 00:34:09;;;;;;;8.43;6.30;;;17.40;99.90;;;;;;5015304;28;20038;-63
2023/06/24 00:36:36;;;;;;;8.43;6.70;;;17.30;99.90;;;;;;5014417;28;20056;-62
2023/06/24 00:39:03;;;;;;;8.13;7.00;;;17.30;99.90;;;;;;5013927;28;20045;-61
2023/06/24 00:41:30;;;;;;;8.50;7.28;;;17.20;99.90;;;;;;4998220;28;20461;-62
2023/06/24 00:43:57;;;;;;;12.73;8.65;;;17.20;99.90;;;;;;5002629;28;20037;-62
2023/06/24 00:46:25;;;;;;;8.73;7.57;;;17.20;99.90;;;;;;4996798;28;20461;-62
2023/06/24 00:48:52;;;;;;;10.38;7.18;;;17.20;99.90;;;;;;5012569;28;20045;-61
2023/06/24 00:51:20;;;;;;;9.68;6.78;;;17.10;99.90;;;;;;4997707;28;20049;-62
2023/06/24 00:53:47;;;;;;;7.95;6.75;;;17.10;99.90;;;;;;5004790;28;20047;-61
2023/06/24 00:56:16;;;;;;;7.28;6.45;;;17.10;99.90;;;;;;4993803;28;20389;-60
2023/06/24 00:58:43;;;;;;;9.45;7.00;;;17.00;99.90;;;;;;5003140;28;20445;-62
2023/06/24 01:01:10;;;;;;;9.50;6.93;;;17.00;99.90;;;;;;4967008;28;20406;-61
2023/06/24 01:03:38;;;;;;;9.23;7.03;;;17.00;99.90;;;;;;4984898;28;20053;-61
2023/06/24 01:06:04;;;;;;;8.75;7.10;;;17.00;99.90;;;;;;4990751;28;20056;-62
2023/06/24 01:08:30;;;;;;;9.45;6.93;;;17.00;99.90;;;;;;4989174;28;20397;-61
2023/06/24 01:10:55;;;;;;;8.88;7.15;;;17.00;99.90;;;;;;4990976;28;20521;-62
2023/06/24 01:13:22;;;;;;;9.70;7.20;;;17.00;99.90;;;;;;4973444;28;20049;-63
2023/06/24 01:15:48;;;;;;;9.52;7.55;;;16.90;99.90;;;;;;4996622;28;20182;-62
2023/06/24 01:18:24;;;;;;;9.15;6.38;;;16.90;99.90;;;;;;4990371;28;20621;-60
2023/06/24 01:20:59;;;;;;;8.73;6.50;;;16.90;99.90;;;;;;4993502;28;20041;-62
2023/06/24 01:23:52;;;;;;;7.95;6.50;;;16.90;99.90;;;;;;5006756;28;20100;-62
2023/06/24 01:26:52;;;;;;;10.85;7.63;;;16.80;99.90;;;;;;5008307;28;20044;-59
2023/06/24 01:29:45;;;;;;;9.55;7.53;;;16.80;99.90;;;;;;5011939;28;20056;-60
2023/06/24 01:32:23;;;;;;;11.00;7.25;;;16.80;99.90;;;;;;5008371;28;20115;-62
2023/06/24 01:34:52;;;;;;;9.98;8.52;;;16.70;99.90;;;;;;5007411;28;20123;-62
2023/06/24 01:37:29;;;;;;;10.80;8.07;;;16.70;99.90;;;;;;5013860;28;20042;-62
2023/06/24 01:40:09;;;;;;;12.15;8.20;;;16.60;99.90;;;;;;4975456;28;20079;-62
2023/06/24 01:42:38;;;;;;;9.60;7.38;;;16.60;99.90;;;;;;5009385;28;20068;-62
2023/06/24 01:45:08;;;;;;;10.00;7.35;;;16.60;99.90;;;;;;5011109;28;20222;-61
2023/06/24 01:47:35;;;;;;;9.75;7.88;;;16.60;99.90;;;;;;5001680;28;20041;-62
2023/06/24 01:50:03;;;;;;;10.75;8.10;;;16.50;99.90;;;;;;5019561;28;20092;-62
2023/06/24 01:52:30;;;;;;;10.75;8.10;;;16.50;99.90;;;;;;5008857;28;20049;-61
2023/06/24 01:54:59;;;;;;;10.82;7.50;;;16.50;99.90;;;;;;4993865;28;20041;-62
2023/06/24 01:57:27;;;;;;;9.18;7.40;;;16.50;99.90;;;;;;5014065;28;20049;-62
2023/06/24 01:59:55;;;;;;;11.57;8.38;;;16.50;99.90;;;;;;4997480;28;20133;-63
2023/06/24 02:02:22;;;;;;;11.57;8.82;;;16.40;99.90;;;;;;5001007;28;24869;-62
2023/06/24 02:04:53;;;;;;;12.82;10.50;;;16.40;99.90;;;;;;5013898;28;20128;-62
2023/06/24 02:07:20;;;;;;;11.68;9.77;;;16.40;99.90;;;;;;5012678;28;20055;-62
2023/06/24 02:09:46;;;;;;;13.38;10.32;;;16.50;99.90;;;;;;5011421;28;20482;-63
2023/06/24 02:12:12;;;;;;;17.58;10.02;;;16.50;99.90;;;;;;4993488;28;20045;-60
2023/06/24 02:14:39;;;;;;;14.95;11.32;;;16.50;99.90;;;;;;4997117;28;20042;-63
2023/06/24 02:17:08;;;;;;;13.73;10.45;;;16.40;99.90;;;;;;4974341;28;20124;-62
2023/06/24 02:19:35;;;;;;;13.23;10.15;;;16.40;99.90;;;;;;5006590;28;22349;-62
2023/06/24 02:22:02;;;;;;;13.65;10.18;;;16.40;99.90;;;;;;4993899;28;20083;-62
2023/06/24 02:24:29;;;;;;;15.07;10.30;;;16.40;99.90;;;;;;5015931;28;20448;-63
2023/06/24 02:26:58;;;;;;;13.63;11.07;;;16.40;99.90;;;;;;5018225;28;20518;-62
2023/06/24 02:29:27;;;;;;;13.15;10.63;;;16.40;99.90;;;;;;5006847;28;20524;-62
2023/06/24 02:31:53;;;;;;;15.32;11.27;;;16.40;99.90;;;;;;5019131;28;20050;-63
2023/06/24 02:34:20;;;;;;;19.30;12.18;;;16.40;99.90;;;;;;5017672;28;20072;-63
2023/06/24 02:36:45;;;;;;;17.23;12.73;;;16.40;99.90;;;;;;5010685;28;20037;-62
2023/06/24 02:39:11;;;;;;;16.60;12.30;;;16.40;99.90;;;;;;4999123;28;20044;-62
2023/06/24 02:41:37;;;;;;;16.27;12.70;;;16.30;99.90;;;;;;5013687;28;20103;-62
2023/06/24 02:44:03;;;;;;;16.85;12.60;;;16.30;99.90;;;;;;5015834;28;20049;-63
2023/06/24 02:46:30;;;;;;;23.45;13.98;;;16.30;99.90;;;;;;5014636;28;20073;-62
2023/06/24 02:48:58;;;;;;;18.92;13.73;;;16.30;99.90;;;;;;5006949;28;20033;-63
2023/06/24 02:51:25;;;;;;;21.95;14.30;;;16.30;99.90;;;;;;5011012;28;20038;-62
2023/06/24 02:53:51;;;;;;;19.40;13.52;;;16.30;99.90;;;;;;4972981;28;21930;-62
2023/06/24 02:56:20;;;;;;;18.95;14.60;;;16.20;99.90;;;;;;4981919;28;20056;-62
2023/06/24 02:58:47;;;;;;;20.10;14.32;;;16.20;99.90;;;;;;5005720;28;20052;-62
2023/06/24 03:01:14;;;;;;;21.80;13.60;;;16.20;99.90;;;;;;5011134;28;20049;-62
2023/06/24 03:03:42;;;;;;;19.45;13.25;;;16.20;99.90;;;;;;5009537;28;20048;-62
2023/06/24 03:06:12;;;;;;;22.42;13.85;;;16.20;99.90;;;;;;4993572;28;20495;-62
2023/06/24 03:08:39;;;;;;;18.50;13.60;;;16.20;99.90;;;;;;5008529;28;20045;-62
2023/06/24 03:11:04;;;;;;;16.08;12.20;;;16.20;99.90;;;;;;4972949;28;20585;-61
2023/06/24 03:13:30;;;;;;;18.83;12.30;;;16.20;99.90;;;;;;4987995;28;20073;-62
2023/06/24 03:15:56;;;;;;;17.25;11.50;;;16.20;99.90;;;;;;4979323;28;20135;-62
2023/06/24 03:18:21;;;;;;;15.32;12.60;;;16.10;99.90;;;;;;4988605;28;20053;-60
2023/06/24 03:20:47;;;;;;;15.57;11.45;;;16.20;99.90;;;;;;5002429;28;20041;-62
2023/06/24 03:23:13;;;;;;;16.60;11.45;;;16.10;99.90;;;;;;5003387;28;20045;-62
2023/06/24 03:25:39;;;;;;;14.30;10.75;;;16.20;99.90;;;;;;4967202;28;20133;-62
2023/06/24 03:28:07;;;;;;;17.60;11.07;;;16.20;99.90;;;;;;5001185;28;20062;-61
2023/06/24 03:30:33;;;;;;;16.75;11.00;;;16.20;99.90;;;;;;4970508;28;20080;-62
2023/06/24 03:32:59;;;;;;;13.85;10.07;;;16.20;99.90;;;;;;4989527;28;20056;-62
2023/06/24 03:35:24;;;;;;;15.82;11.00;;;16.20;99.90;;;;;;4982279;28;20079;-62
2023/06/24 03:37:50;;;;;;;14.15;11.02;;;16.20;99.90;;;;;;5000585;28;20045;-60
2023/06/24 03:40:16;;;;;;;13.27;10.27;;;16.20;99.90;;;;;;4973677;28;20049;-63
2023/06/24 03:42:42;;;;;;;15.13;10.25;;;16.20;99.90;;;;;;4999430;28;20128;-62
2023/06/24 03:45:08;;;;;;;15.55;10.80;;;16.20;99.90;;;;;;5003104;28;20047;-62
2023/06/24 03:47:33;;;;;;;14.18;10.40;;;16.20;99.90;;;;;;5004400;28;20033;-61
2023/06/24 03:49:59;;;;;;;14.40;10.32;;;16.20;99.90;;;;;;4985093;28;20449;-60
2023/06/24 03:52:25;;;;;;;15.00;10.60;;;16.20;99.90;;;;;;4968242;28;20065;-62
2023/06/24 03:54:51;;;;;;;15.65;9.38;;;16.20;99.90;;;;;;4997249;28;20042;-60
2023/06/24 03:57:17;;;;;;;12.75;9.75;;;16.20;99.90;;;;;;5002893;28;20057;-62
2023/06/24 03:59:43;;;;;;;12.38;8.82;;;16.20;99.90;;;;;;5004375;28;20053;-61
2023/06/24 04:02:09;;;;;;;13.50;9.40;;;16.20;99.90;;;;;;4963124;28;20060;-61
2023/06/24 04:04:35;;;;;;;12.60;8.88;;;16.20;99.90;;;;;;5000278;28;20045;-62
2023/06/24 04:07:01;;;;;;;11.98;8.60;;;16.30;99.90;;;;;;4998496;28;20048;-61
2023/06/24 04:09:28;;;;;;;11.32;8.50;;;16.30;99.90;;;;;;4999409;28;20107;-61
2023/06/24 04:11:54;;;;;;;14.68;8.77;;;16.30;99.90;;;;;;4988542;28;20041;-62
2023/06/24 04:18:01;;;;;;;9.38;7.25;;;16.30;99.90;;;;;;5011604;28;20044;-62
2023/06/24 04:20:26;;;;;;;10.60;7.97;;;16.40;99.90;;;;;;5003982;28;20041;-61
2023/06/24 04:22:52;;;;;;;9.07;7.70;;;16.40;99.90;;;;;;5009525;28;20057;-62
2023/06/24 04:25:18;;;;;;;11.57;8.40;;;16.40;99.90;;;;;;4990234;28;20042;-62
2023/06/24 04:27:44;;;;;;;9.98;7.63;;;16.40;99.90;;;;;;4998775;28;20305;-61
2023/06/24 04:30:10;;;;;;;12.95;7.82;;;16.50;99.90;;;;;;5012328;28;20073;-61
2023/06/24 04:32:36;;;;;;;8.27;7.22;;;16.50;99.90;;;;;;4995016;28;20034;-62
2023/06/24 04:35:01;;;;;;;10.07;7.45;;;16.60;99.90;;;;;;5010175;28;20490;-62
2023/06/24 04:37:27;;;;;;;9.27;7.22;;;16.60;99.90;;;;;;5012720;28;20565;-62
2023/06/24 04:39:53;;;;;;;10.88;7.72;;;16.70;99.90;;;;;;5008867;28;20188;-62
2023/06/24 04:42:18;;;;;;;9.52;7.07;;;16.70;99.90;;;;;;5011188;28;20442;-61
2023/06/24 04:44:44;;;;;;;11.45;7.35;;;16.70;99.90;;;;;;5009639;28;20041;-62
2023/06/24 04:47:10;;;;;;;12.35;7.60;;;16.80;99.90;;;;;;4994498;28;20047;-62
2023/06/24 04:49:36;;;;;;;9.27;7.72;;;16.80;99.90;;;;;;5013897;28;20938;-63
2023/06/24 04:52:02;;;;;;;11.50;7.80;;;16.80;99.90;;;;;;4991810;28;20443;-62
2023/06/24 04:54:28;;;;;;;10.32;7.70;;;16.80;99.90;;;;;;4977333;28;20053;-62
2023/06/24 04:56:55;;;;;;;12.60;8.10;;;16.80;99.90;;;;;;5007341;28;20034;-62
2023/06/24 04:59:24;;;;;;;10.52;8.32;;;16.90;99.90;;;;;;5007668;28;20041;-61
2023/06/24 05:01:50;;;;;;;9.70;8.27;;;17.00;99.90;;;;;;5008509;28;20065;-62
2023/06/24 05:04:15;;;;;;;11.00;8.50;;;17.00;99.90;;;;;;4996042;28;20486;-62
2023/06/24 05:06:41;;;;;;;10.00;8.23;;;17.00;99.90;;;;;;5007882;28;20053;-62
2023/06/24 05:09:07;;;;;;;13.55;9.25;;;17.10;99.90;;;;;;5006051;28;20042;-62
2023/06/24 05:11:33;;;;;;;14.65;8.95;;;17.10;99.90;;;;;;4998601;28;20179;-60
2023/06/24 05:13:58;;;;;;;11.57;9.02;;;17.10;99.90;;;;;;4992006;28;20402;-62
2023/06/24 05:16:24;;;;;;;12.73;9.05;;;17.20;99.90;;;;;;5011522;28;20059;-62
2023/06/24 05:18:50;;;;;;;12.10;9.75;;;17.20;99.90;;;;;;4998743;28;20506;-61
2023/06/24 05:21:16;;;;;;;13.05;9.45;;;17.20;99.90;;;;;;4994381;28;20378;-60
2023/06/24 05:23:42;;;;;;;12.98;9.90;;;17.20;99.90;;;;;;5009577;28;20064;-62
2023/06/24 05:26:08;;;;;;;17.90;10.07;;;17.30;99.90;;;;;;5012450;28;20041;-60
2023/06/24 05:28:33;;;;;;;15.07;10.48;;;17.30;99.90;;;;;;5008515;28;20055;-63
2023/06/24 05:30:59;;;;;;;13.30;10.32;;;17.30;99.90;;;;;;4996201;28;20154;-62
2023/06/24 05:33:25;;;;;;;13.65;10.27;;;17.40;99.90;;;;;;5010797;28;20046;-61
2023/06/24 05:35:51;;;;;;;14.10;10.13;;;17.40;99.90;;;;;;4992800;28;20045;-62
2023/06/24 05:38:16;;;;;;;16.63;10.60;;;17.50;99.90;;;;;;4998587;28;20150;-62
2023/06/24 05:40:42;;;;;;;16.52;10.77;;;17.50;99.90;;;;;;5004779;28;20532;-62
2023/06/24 05:43:08;;;;;;;13.10;10.15;;;17.60;99.90;;;;;;5009213;28;20049;-62
2023/06/24 05:45:34;;;;;;;13.50;10.38;;;17.60;99.90;;;;;;4996959;28;20071;-60
2023/06/24 05:47:59;;;;;;;14.63;10.30;;;17.70;99.90;;;;;;4991052;28;20042;-58
2023/06/24 05:50:25;;;;;;;14.50;10.77;;;17.70;99.90;;;;;;5008925;28;20033;-62
2023/06/24 05:52:51;;;;;;;13.77;10.60;;;17.80;99.90;;;;;;5009805;28;20068;-62
2023/06/24 05:55:16;;;;;;;16.83;11.40;;;17.90;99.90;;;;;;5008229;28;20037;-61
2023/06/24 05:57:42;;;;;;;13.60;10.82;;;17.90;99.90;;;;;;4976119;28;20041;-62
2023/06/24 06:00:09;;;;;;;15.35;10.63;;;18.00;99.90;;;;;;5010267;28;20561;-59
2023/06/24 06:02:34;;;;;;;15.23;10.70;;;18.10;99.90;;;;;;4992292;28;20038;-63
2023/06/24 06:05:01;;;;;;;15.50;10.98;;;18.20;99.90;;;;;;5002416;28;20596;-60
2023/06/24 06:07:27;;;;;;;15.45;11.15;;;18.20;99.90;;;;;;5002636;28;20189;-62
2023/06/24 06:09:52;;;;;;;17.20;11.30;;;18.40;99.90;;;;;;4985121;28;20742;-59
2023/06/24 06:12:18;;;;;;;13.82;10.38;;;18.50;99.90;;;;;;5009713;28;20033;-60
2023/06/24 06:14:44;;;;;;;12.85;10.63;;;18.60;99.90;;;;;;5005102;28;20413;-61
2023/06/24 06:17:09;;;;;;;16.08;10.82;;;18.70;99.90;;;;;;4966643;28;20040;-60
2023/06/24 06:19:35;;;;;;;13.52;9.90;;;18.90;99.90;;;;;;5009034;28;20091;-62
2023/06/24 06:22:01;;;;;;;13.07;10.50;;;19.00;99.90;;;;;;4976166;28;20525;-62
2023/06/24 06:24:27;;;;;;;12.25;9.70;;;19.20;99.90;;;;;;5011482;28;20543;-62
2023/06/24 06:26:52;;;;;;;12.07;10.02;;;19.30;99.90;;;;;;5011915;28;20064;-62
2023/06/24 06:29:18;;;;;;;13.40;10.70;;;19.40;99.90;;;;;;4980363;28;20151;-62
2023/06/24 06:31:45;;;;;;;13.52;10.23;;;19.50;99.90;;;;;;4985967;28;20054;-62
2023/06/24 06:34:11;;;;;;;15.75;10.82;;;19.60;99.90;;;;;;4987995;28;20141;-62
2023/06/24 06:36:36;;;;;;;12.95;9.57;;;19.70;99.90;;;;;;4976740;28;20196;-62
2023/06/24 06:39:02;;;;;;;14.05;9.95;;;19.80;99.90;;;;;;4995672;28;20116;-61
2023/06/24 06:41:28;;;;;;;14.32;10.43;;;19.90;99.90;;;;;;4977172;28;20129;-63
2023/06/24 06:43:54;;;;;;;12.82;9.85;;;20.00;99.90;;;;;;4976265;28;20076;-62
2023/06/24 06:46:20;;;;;;;13.88;8.70;;;20.10;99.90;;;;;;4994472;28;20093;-62
2023/06/24 06:48:46;;;;;;;11.85;9.07;;;20.20;99.90;;;;;;4979237;28;20134;-62
2023/06/24 06:51:13;;;;;;;11.90;8.73;;;20.30;99.90;;;;;;4966201;28;20436;-61
2023/06/24 06:53:39;;;;;;;11.75;9.27;;;20.40;99.90;;;;;;4939121;28;20042;-61
2023/06/24 06:56:04;;;;;;;11.23;8.90;;;20.50;99.90;;;;;;4988008;28;20565;-62
2023/06/24 06:58:30;;;;;;;14.15;9.50;;;20.60;99.90;;;;;;4988161;28;20088;-61
2023/06/24 07:01:01;;;;;;;14.00;8.68;;;20.60;99.90;;;;;;4985200;28;20054;-62
2023/06/24 07:03:28;;;;;;;11.98;9.27;;;20.70;99.90;;;;;;4979282;28;20156;-62
2023/06/24 07:05:53;;;;;;;11.93;8.80;;;20.80;99.90;;;;;;4982271;28;20144;-62
2023/06/24 07:08:19;;;;;;;13.00;9.02;;;20.90;99.90;;;;;;4983460;28;20060;-62
2023/06/24 07:10:45;;;;;;;12.73;9.13;;;21.00;99.90;;;;;;4984932;28;20133;-63
2023/06/24 07:13:11;;;;;;;9.88;8.52;;;21.00;99.90;;;;;;4985198;28;20049;-62
2023/06/24 07:15:36;;;;;;;14.32;8.80;;;21.10;99.90;;;;;;4968944;28;20050;-60
2023/06/24 07:18:02;;;;;;;11.48;8.68;;;21.20;99.90;;;;;;4978186;28;20151;-62
2023/06/24 07:20:28;;;;;;;12.32;8.48;;;21.20;99.90;;;;;;4986536;28;20475;-62
2023/06/24 07:22:53;;;;;;;12.45;8.90;;;21.40;99.90;;;;;;4986760;28;20046;-61
2023/06/24 07:25:19;;;;;;;10.30;7.97;;;21.40;99.90;;;;;;4981728;28;20033;-63
2023/06/24 07:27:45;;;;;;;10.23;8.13;;;21.50;99.90;;;;;;4972056;28;20101;-62
2023/06/24 07:30:11;;;;;;;10.68;7.70;;;21.60;99.90;;;;;;4995163;28;20418;-62
2023/06/24 07:32:36;;;;;;;9.98;8.10;;;21.70;99.90;;;;;;5006255;28;20049;-62
2023/06/24 07:35:02;;;;;;;11.13;8.07;;;21.90;99.90;;;;;;5000666;28;20700;-62
2023/06/24 07:37:28;;;;;;;13.68;8.63;;;22.00;99.90;;;;;;4988461;28;20049;-63
2023/06/24 07:39:54;;;;;;;9.43;7.30;;;22.10;99.90;;;;;;5004053;28;20083;-62
2023/06/24 07:42:19;;;;;;;10.18;7.43;;;22.30;99.90;;;;;;4970172;28;20061;-60
2023/06/24 07:44:48;;;;;;;9.55;7.40;;;22.50;99.90;;;;;;5002536;28;20041;-61
2023/06/24 07:47:16;;;;;;;10.25;6.63;;;22.70;99.80;;;;;;5002611;28;20041;-61
2023/06/24 07:49:41;;;;;;;8.85;6.80;;;22.90;99.60;;;;;;5003541;28;20054;-62
2023/06/24 07:52:07;;;;;;;10.25;6.68;;;23.10;99.10;;;;;;5002926;28;20048;-62
2023/06/24 07:54:34;;;;;;;11.35;6.40;;;23.20;98.50;;;;;;5010363;28;20038;-62
2023/06/24 07:56:59;;;;;;;10.80;6.38;;;23.30;98.20;;;;;;5010743;28;20071;-62
2023/06/24 07:59:25;;;;;;;9.52;6.30;;;23.50;98.10;;;;;;4976558;28;20038;-62
2023/06/24 08:01:51;;;;;;;10.27;6.57;;;23.50;97.50;;;;;;4992577;28;20099;-60
2023/06/24 08:04:16;;;;;;;7.93;6.20;;;23.60;97.10;;;;;;5012676;28;20129;-62
2023/06/24 08:06:42;;;;;;;11.45;6.10;;;23.70;97.10;;;;;;5005634;28;20038;-62
2023/06/24 08:09:08;;;;;;;8.68;6.18;;;23.80;97.00;;;;;;4990657;28;20042;-61
2023/06/24 08:11:34;;;;;;;8.38;6.15;;;23.90;96.90;;;;;;5010792;28;20046;-62
2023/06/24 08:14:01;;;;;;;8.55;6.28;;;24.00;96.50;;;;;;5004316;28;20045;-62
2023/06/24 08:16:27;;;;;;;8.48;6.57;;;24.10;96.10;;;;;;4998408;28;20124;-62
2023/06/24 08:18:53;;;;;;;8.30;6.57;;;24.10;95.60;;;;;;5003921;28;20045;-62
2023/06/24 08:21:19;;;;;;;10.68;6.40;;;24.10;95.20;;;;;;5007962;28;20120;-63
2023/06/24 08:23:46;;;;;;;7.25;6.13;;;24.10;95.10;;;;;;4991814;28;20041;-62
2023/06/24 08:26:12;;;;;;;14.80;6.40;;;24.10;95.00;;;;;;5007296;28;20045;-72
2023/06/24 08:28:38;;;;;;;10.10;6.82;;;24.10;94.60;;;;;;4975104;28;20064;-68
2023/06/24 08:31:03;;;;;;;11.13;6.35;;;24.20;94.50;;;;;;4971403;28;20058;-73
2023/06/24 08:33:29;;;;;;;9.75;6.70;;;24.30;94.50;;;;;;4960772;28;20104;-67
2023/06/24 08:35:55;;;;;;;9.32;6.32;;;24.30;94.30;;;;;;4974230;28;20042;-73
2023/06/24 08:38:20;;;;;;;11.85;6.65;;;24.40;94.50;;;;;;4958549;28;20077;-71
2023/06/24 08:40:47;;;;;;;9.35;6.18;;;24.60;94.40;;;;;;4947388;28;20176;-72
2023/06/24 08:43:13;;;;;;;10.98;6.30;;;24.80;93.80;;;;;;4954463;28;20168;-72
2023/06/24 08:45:39;;;;;;;12.93;6.20;;;24.90;93.30;;;;;;4972109;28;20559;-72
2023/06/24 08:48:05;;;;;;;12.20;6.22;;;24.90;93.10;;;;;;4958954;28;20077;-71
2023/06/24 08:50:43;;;;;;;10.68;5.97;;;25.00;92.80;;;;;;4978434;28;20057;-71
2023/06/24 08:53:10;;;;;;;9.07;6.35;;;25.10;92.40;;;;;;4964891;28;20454;-72
2023/06/24 08:55:56;;;;;;;9.43;6.03;;;25.10;92.10;;;;;;4963101;28;20041;-70
2023/06/24 08:58:22;;;;;;;8.73;6.22;;;25.30;92.30;;;;;;4963874;28;20094;-72
2023/06/24 09:00:48;;;;;;;9.07;6.25;;;25.40;91.60;;;;;;4944562;28;20207;-72
2023/06/24 09:03:14;;;;;;;9.90;5.38;;;25.60;91.60;;;;;;4947171;28;20053;-71
2023/06/24 09:05:39;;;;;;;8.15;5.00;;;25.90;90.80;;;;;;4940869;28;20105;-71
2023/06/24 09:08:05;;;;;;;8.32;5.82;;;26.00;90.60;;;;;;4962013;28;20034;-70
2023/06/24 09:10:36;;;;;;;8.70;5.63;;;26.10;89.90;;;;;;4963959;28;20054;-70
2023/06/24 09:13:04;;;;;;;9.43;5.30;;;26.10;88.60;;;;;;4963706;28;20046;-69
2023/06/24 09:15:36;;;;;;;7.03;5.00;;;26.10;88.20;;;;;;4966985;28;20374;-72
2023/06/24 09:18:03;;;;;;;9.82;5.28;;;26.10;87.80;;;;;;4980215;28;20180;-69
2023/06/24 09:20:31;;;;;;;9.75;5.38;;;26.10;87.70;;;;;;4969952;28;20068;-68
2023/06/24 09:23:02;;;;;;;8.70;5.75;;;26.00;87.00;;;;;;4966182;28;20053;-68
2023/06/24 09:25:28;;;;;;;8.43;5.32;;;26.00;86.40;;;;;;4966599;28;20053;-68
2023/06/24 09:27:55;;;;;;;14.05;5.68;;;26.00;86.50;;;;;;4964454;28;20034;-71
2023/06/24 09:30:24;;;;;;;6.57;5.30;;;26.20;86.50;;;;;;4976379;28;20045;-70
2023/06/24 09:32:51;;;;;;;9.15;5.82;;;26.40;86.40;;;;;;4982324;28;20133;-71
2023/06/24 09:35:22;;;;;;;10.70;6.03;;;26.60;85.50;;;;;;4987090;28;20052;-71
2023/06/24 09:37:53;;;;;;;6.90;5.40;;;26.80;84.80;;;;;;4991184;28;20200;-71
2023/06/24 09:40:19;;;;;;;9.38;5.78;;;27.00;83.40;;;;;;4988524;28;20065;-67
2023/06/24 09:42:52;;;;;;;14.00;5.45;;;27.00;83.10;;;;;;4984606;28;20100;-70
2023/06/24 09:45:26;;;;;;;10.30;5.60;;;27.10;83.10;;;;;;4984355;28;20041;-72
2023/06/24 09:47:53;;;;;;;5.82;5.05;;;27.30;82.60;;;;;;4981694;28;20095;-71
2023/06/24 09:50:19;;;;;;;7.82;4.82;;;27.50;81.60;;;;;;4984540;28;20041;-70
2023/06/24 09:52:45;;;;;;;7.78;5.32;;;27.60;81.40;;;;;;4981242;28;20685;-71
2023/06/24 09:55:14;;;;;;;9.35;5.47;;;27.70;79.50;;;;;;4967145;28;20063;-71
2023/06/24 09:57:44;;;;;;;12.18;5.00;;;27.80;78.60;;;;;;4961087;28;20051;-71
2023/06/24 10:00:10;;;;;;;6.82;4.68;;;27.90;78.80;;;;;;4988094;28;20045;-68
2023/06/24 10:02:37;;;;;;;7.63;4.70;;;28.10;78.60;;;;;;4974522;28;20053;-68
2023/06/24 10:05:04;;;;;;;10.93;5.22;;;28.30;78.00;;;;;;4998423;28;20577;-68
2023/06/24 10:07:32;;;;;;;5.97;4.55;;;28.40;77.50;;;;;;4994851;28;20103;-71
2023/06/24 10:09:58;;;;;;;7.95;5.07;;;28.60;77.50;;;;;;4996931;28;20473;-72
2023/06/24 10:12:26;;;;;;;8.88;6.15;;;28.70;75.70;;;;;;4997918;28;20128;-69
2023/06/24 10:14:52;;;;;;;6.32;5.03;;;28.80;75.00;;;;;;5005547;28;20046;-72
2023/06/24 10:17:18;;;;;;;7.13;4.90;;;28.90;75.20;;;;;;4962718;28;20045;-72
2023/06/24 10:19:44;;;;;;;9.23;4.50;;;29.10;73.50;;;;;;4970525;28;20037;-74
2023/06/24 10:22:11;;;;;;;6.93;4.40;;;29.10;73.50;;;;;;4986026;28;20104;-70
2023/06/24 10:24:42;;;;;;;7.65;4.60;;;29.10;72.50;;;;;;4963490;28;20041;-70
2023/06/24 10:27:21;;;;;;;7.50;4.82;;;29.00;71.80;;;;;;4992594;28;20052;-71
2023/06/24 10:29:49;;;;;;;6.90;4.45;;;29.00;71.40;;;;;;4995631;28;20155;-69
2023/06/24 10:32:16;;;;;;;9.90;4.20;;;29.10;71.70;;;;;;4983442;28;20426;-68
2023/06/24 10:34:43;;;;;;;4.75;3.75;;;29.30;70.60;;;;;;4977014;28;20041;-69
2023/06/24 10:37:30;;;;;;;11.35;4.28;;;29.50;69.80;;;;;;4976465;28;20425;-69
2023/06/24 10:40:00;;;;;;;5.85;4.60;;;29.60;69.80;;;;;;4972448;28;20135;-71
2023/06/24 10:42:30;;;;;;;4.68;3.83;;;29.80;69.90;;;;;;4983050;28;20565;-71
2023/06/24 10:44:58;;;;;;;6.78;3.70;;;29.90;68.20;;;;;;4992589;28;20081;-71
2023/06/24 10:47:24;;;;;;;4.28;3.63;;;30.00;69.10;;;;;;4968026;28;20069;-70
2023/06/24 10:49:51;;;;;;;7.72;4.18;;;30.20;69.40;;;;;;4995574;28;20045;-70
2023/06/24 10:52:20;;;;;;;8.68;4.00;;;30.40;67.80;;;;;;5011098;28;20088;-70
2023/06/24 10:54:47;;;;;;;5.90;4.28;;;30.30;67.20;;;;;;4990460;28;20128;-69
2023/06/24 10:57:13;;;;;;;7.05;4.32;;;30.20;66.60;;;;;;4985827;28;20127;-72
2023/06/24 10:59:49;;;;;;;10.30;4.40;;;30.00;65.50;;;;;;4985066;28;20052;-67
2023/06/24 11:02:16;;;;;;;10.00;4.75;;;30.20;67.40;;;;;;4989365;28;21530;-69
2023/06/24 11:04:44;;;;;;;7.90;4.00;;;30.00;66.10;;;;;;4989846;28;20053;-68
2023/06/24 11:07:10;;;;;;;5.68;3.90;;;29.80;66.10;;;;;;4985068;28;20721;-71
2023/06/24 11:09:35;;;;;;;6.03;4.20;;;29.70;67.50;;;;;;4966020;28;20040;-66
2023/06/24 11:12:05;;;;;;;4.60;4.05;;;29.90;66.30;;;;;;4967375;28;20688;-71
2023/06/24 11:14:34;;;;;;;7.78;4.22;;;30.20;65.20;;;;;;4979909;28;20068;-69
2023/06/24 11:17:04;;;;;;;6.63;4.90;;;30.20;65.40;;;;;;4984177;28;20121;-73
2023/06/24 11:19:31;;;;;;;5.32;3.90;;;30.00;65.30;;;;;;4980125;28;20041;-72
2023/06/24 11:22:03;;;;;;;5.20;4.18;;;29.90;66.00;;;;;;4968002;28;20244;-70
2023/06/24 11:24:29;;;;;;;7.78;4.28;;;29.70;65.70;;;;;;4984933;28;20201;-71
2023/06/24 11:26:55;;;;;;;6.20;4.72;;;29.50;66.00;;;;;;4983136;28;20551;-71
2023/06/24 11:29:28;;;;;;;9.55;5.50;;;29.30;66.10;;;;;;4962584;28;20143;-73
2023/06/24 11:31:53;;;;;;;9.55;4.50;;;29.40;66.40;;;;;;4986006;28;22119;-70
2023/06/24 11:34:19;;;;;;;8.10;5.18;;;29.40;66.80;;;;;;4966676;28;20045;-72
2023/06/24 11:36:45;;;;;;;6.35;4.60;;;29.30;66.50;;;;;;4964852;28;20683;-66
2023/06/24 11:39:24;;;;;;;6.90;4.43;;;29.10;66.50;;;;;;4956932;28;20048;-63
2023/06/24 11:41:51;;;;;;;5.88;3.60;;;29.20;66.80;;;;;;4986296;28;20080;-68
2023/06/24 11:44:19;;;;;;;5.03;3.88;;;29.30;66.50;;;;;;4992608;28;20045;-68
2023/06/24 11:46:45;;;;;;;7.90;3.60;;;29.60;66.30;;;;;;4984422;28;20046;-71
2023/06/24 11:49:11;;;;;;;4.90;3.40;;;29.90;64.40;;;;;;4971558;28;20049;-69
2023/06/24 11:51:37;;;;;;;3.85;3.15;;;30.20;63.60;;;;;;5000508;28;20041;-69
2023/06/24 11:54:05;;;;;;;4.68;3.33;;;30.40;62.90;;;;;;4969232;28;20202;-74
2023/06/24 11:56:38;;;;;;;5.05;3.42;;;30.80;62.70;;;;;;4987361;28;20048;-60
2023/06/24 11:59:05;;;;;;;6.53;3.42;;;31.10;61.80;;;;;;5009862;28;20042;-62
2023/06/24 12:01:37;;;;;;;7.03;3.72;;;31.20;60.90;;;;;;4991752;28;20164;-69
2023/06/24 12:04:13;;;;;;;5.18;3.20;;;30.90;60.60;;;;;;5002505;28;20164;-65
2023/06/24 12:06:40;;;;;;;4.18;3.38;;;30.70;60.90;;;;;;5011395;28;20083;-67
2023/06/24 12:09:07;;;;;;;7.78;3.45;;;30.30;61.20;;;;;;4994716;28;20046;-67
2023/06/24 12:11:32;;;;;;;5.90;3.67;;;30.20;61.10;;;;;;5007452;28;20104;-66
2023/06/24 12:13:58;;;;;;;6.78;3.70;;;30.30;61.20;;;;;;5001637;28;20037;-66
2023/06/24 12:16:25;;;;;;;6.72;3.78;;;30.50;61.30;;;;;;4998383;28;20041;-69
2023/06/24 12:18:51;;;;;;;8.65;3.50;;;30.60;60.40;;;;;;4982989;28;20512;-65
2023/06/24 12:21:16;;;;;;;4.90;3.65;;;30.80;60.40;;;;;;5004831;28;20046;-69
2023/06/24 12:23:42;;;;;;;5.70;3.20;;;30.80;60.90;;;;;;4967986;28;20414;-66
2023/06/24 12:26:08;;;;;;;5.55;3.22;;;31.10;60.50;;;;;;4987553;28;20046;-67
2023/06/24 12:28:34;;;;;;;3.75;3.10;;;31.30;59.80;;;;;;4994918;28;20064;-68
2023/06/24 12:30:59;;;;;;;4.10;3.00;;;31.50;59.50;;;;;;5013666;28;20147;-69
2023/06/24 12:33:25;;;;;;;8.40;2.70;;;31.70;58.50;;;;;;4997197;28;20132;-69
2023/06/24 12:35:51;;;;;;;5.10;2.95;;;31.50;58.30;;;;;;5002489;28;20041;-69
2023/06/24 12:38:17;;;;;;;3.67;2.70;;;31.40;57.90;;;;;;4982589;28;20172;-70
2023/06/24 12:40:43;;;;;;;3.47;2.60;;;31.60;58.90;;;;;;4997930;28;20132;-70
2023/06/24 12:43:09;;;;;;;6.55;3.20;;;32.00;58.40;;;;;;4996436;28;20044;-64